createdAt,value
2023-04-08T00:02:26.725Z,101790.66
2023-04-08T00:05:16.357Z,101794.19
2023-04-08T00:08:05.783Z,101780.84
2023-04-08T00:10:55.239Z,101797.22
2023-04-08T00:13:44.541Z,101793.16
2023-04-08T00:16:35.175Z,101798.03
2023-04-08T00:19:25.336Z,101801.88
2023-04-08T00:22:15.137Z,101808.16
2023-04-08T00:25:06.809Z,101787.13
2023-04-08T00:27:56.143Z,101799.41
2023-04-08T00:30:45.859Z,101795.31
2023-04-08T00:33:36.725Z,101796.94
2023-04-08T00:36:27.778Z,101792.03
2023-04-08T00:39:17.094Z,101792.59
2023-04-08T00:42:06.297Z,101783.63
2023-04-08T00:44:55.564Z,101788.78
2023-04-08T00:47:44.972Z,101794.25
2023-04-08T00:50:35.998Z,101799.19
2023-04-08T00:53:25.808Z,101780.63
2023-04-08T00:56:15.152Z,101801.34
2023-04-08T00:59:06.156Z,101789.09
2023-04-08T01:02:07.110Z,101788.50
2023-04-08T01:05:03.634Z,101772.41
2023-04-08T01:07:54.797Z,101774.06
2023-04-08T01:10:46.045Z,101786.34
2023-04-08T01:13:41.189Z,101788.78
2023-04-08T01:16:31.250Z,101784.97
2023-04-08T01:19:30.598Z,101781.38
2023-04-08T01:22:29.855Z,101781.38
2023-04-08T01:25:23.552Z,101776.75
2023-04-08T01:28:19.285Z,101788.75
2023-04-08T01:31:09.451Z,101783.81
2023-04-08T01:34:01.359Z,101791.16
2023-04-08T01:36:52.205Z,101779.66
2023-04-08T01:39:42.899Z,101791.41
2023-04-08T01:42:35.291Z,101779.94
2023-04-08T01:45:26.805Z,101785.94
2023-04-08T01:48:17.089Z,101784.03
2023-04-08T01:51:08.065Z,101786.28
2023-04-08T01:53:59.184Z,101780.53
2023-04-08T01:56:48.922Z,101775.06
2023-04-08T01:59:41.975Z,101769.03
2023-04-08T02:02:33.406Z,101766.28
2023-04-08T02:05:23.191Z,101773.91
2023-04-08T02:08:13.451Z,101779.38
2023-04-08T02:11:02.967Z,101785.94
2023-04-08T02:13:53.281Z,101766.06
2023-04-08T02:16:51.568Z,101783.78
2023-04-08T02:19:49.312Z,101785.41
2023-04-08T02:22:45.356Z,101784.91
2023-04-08T02:25:39.066Z,101785.44
2023-04-08T02:28:30.415Z,101790.38
2023-04-08T02:31:21.455Z,101787.94
2023-04-08T02:34:12.484Z,101771.31
2023-04-08T02:37:04.379Z,101782.75
2023-04-08T02:39:54.567Z,101783.88
2023-04-08T02:42:43.908Z,101771.84
2023-04-08T02:45:36.441Z,101775.69
2023-04-08T02:48:25.641Z,101777.06
2023-04-08T02:51:14.939Z,101775.41
2023-04-08T02:54:05.653Z,101769.69
2023-04-08T02:56:55.016Z,101764.47
2023-04-08T02:59:44.208Z,101759.28
2023-04-08T03:02:33.580Z,101761.19
2023-04-08T03:05:23.122Z,101767.47
2023-04-08T03:08:12.279Z,101767.97
2023-04-08T03:11:02.886Z,101772.34
2023-04-08T03:13:52.061Z,101768.22
2023-04-08T03:16:41.341Z,101774.22
2023-04-08T03:19:30.597Z,101773.09
2023-04-08T03:22:20.534Z,101770.13
2023-04-08T03:25:11.912Z,101762.75
2023-04-08T03:28:03.384Z,101764.09
2023-04-08T03:30:52.738Z,101760.31
2023-04-08T03:33:41.991Z,101771.75
2023-04-08T03:36:31.344Z,101767.41
2023-04-08T03:39:21.430Z,101761.41
2023-04-08T03:42:10.689Z,101770.16
2023-04-08T03:45:01.277Z,101722.75
2023-04-08T03:47:50.528Z,101768.28
2023-04-08T03:50:39.849Z,101762.00
2023-04-08T03:53:29.511Z,101764.16
2023-04-08T03:56:21.117Z,101765.03
2023-04-08T03:59:13.117Z,101756.56
2023-04-08T04:02:06.189Z,101751.38
2023-04-08T04:04:55.234Z,101751.09
2023-04-08T04:07:44.524Z,101752.75
2023-04-08T04:10:33.705Z,101759.84
2023-04-08T04:13:22.963Z,101751.41
2023-04-08T04:16:12.286Z,101755.75
2023-04-08T04:19:05.748Z,101758.50
2023-04-08T04:21:54.980Z,101759.34
2023-04-08T04:24:50.873Z,101756.84
2023-04-08T04:27:40.448Z,101752.75
2023-04-08T04:30:33.124Z,101752.22
2023-04-08T04:33:24.304Z,101756.03
2023-04-08T04:36:14.916Z,101760.66
2023-04-08T04:39:04.294Z,101745.94
2023-04-08T04:41:53.464Z,101751.16
2023-04-08T04:44:42.630Z,101754.94
2023-04-08T04:47:32.841Z,101749.47
2023-04-08T04:50:22.257Z,101751.69
2023-04-08T04:53:12.779Z,101748.97
2023-04-08T04:56:02.548Z,101756.63
2023-04-08T04:58:51.984Z,101757.72
2023-04-08T05:01:41.732Z,101765.63
2023-04-08T05:04:31.027Z,101761.56
2023-04-08T05:07:20.329Z,101772.19
2023-04-08T05:10:12.544Z,101760.72
2023-04-08T05:13:01.974Z,101759.06
2023-04-08T05:15:51.143Z,101760.97
2023-04-08T05:18:40.450Z,101752.53
2023-04-08T05:21:29.686Z,101761.31
2023-04-08T05:24:18.973Z,101769.50
2023-04-08T05:27:09.632Z,101761.84
2023-04-08T05:29:58.981Z,101759.41
2023-04-08T05:32:48.211Z,101769.22
2023-04-08T05:35:37.682Z,101771.41
2023-04-08T05:38:28.408Z,101762.69
2023-04-08T05:41:18.484Z,101774.41
2023-04-08T05:44:09.126Z,101779.59
2023-04-08T05:46:58.510Z,101764.88
2023-04-08T05:49:48.889Z,101775.25
2023-04-08T05:52:38.916Z,101777.16
2023-04-08T05:55:28.579Z,101785.09
2023-04-08T05:58:17.731Z,101781.25
2023-04-08T06:01:08.398Z,101784.00
2023-04-08T06:03:57.891Z,101784.81
2023-04-08T06:06:47.247Z,101788.91
2023-04-08T06:09:38.239Z,101779.91
2023-04-08T06:12:27.430Z,101796.00
2023-04-08T06:15:16.743Z,101791.63
2023-04-08T06:18:07.363Z,101791.91
2023-04-08T06:20:56.630Z,101787.25
2023-04-08T06:23:46.096Z,101792.41
2023-04-08T06:26:35.272Z,101791.84
2023-04-08T06:29:24.817Z,101791.28
2023-04-08T06:32:14.383Z,101793.75
2023-04-08T06:35:05.266Z,101799.72
2023-04-08T06:37:54.455Z,101806.00
2023-04-08T06:40:43.650Z,101792.34
2023-04-08T06:43:32.937Z,101803.81
2023-04-08T06:46:22.359Z,101811.75
2023-04-08T06:49:11.575Z,101817.44
2023-04-08T06:52:02.201Z,101825.94
2023-04-08T06:54:51.480Z,101823.72
2023-04-08T06:57:43.675Z,101815.50
2023-04-08T07:00:32.827Z,101818.50
2023-04-08T07:03:22.490Z,101817.69
2023-04-08T07:06:11.903Z,101825.03
2023-04-08T07:09:02.531Z,101822.56
2023-04-08T07:11:51.738Z,101823.38
2023-04-08T07:14:41.169Z,101833.97
2023-04-08T07:17:30.724Z,101832.28
2023-04-08T07:20:20.057Z,101832.78
2023-04-08T07:23:09.221Z,101834.03
2023-04-08T07:26:04.681Z,101836.59
2023-04-08T07:28:53.802Z,101838.28
2023-04-08T07:31:44.760Z,101840.28
2023-04-08T07:34:37.148Z,101843.47
2023-04-08T07:37:26.487Z,101846.19
2023-04-08T07:40:16.119Z,101841.00
2023-04-08T07:43:06.906Z,101843.78
2023-04-08T07:46:02.833Z,101838.00
2023-04-08T07:48:53.206Z,101857.59
2023-04-08T07:51:42.517Z,101859.16
2023-04-08T07:54:34.345Z,101859.31
2023-04-08T07:57:23.514Z,101875.94
2023-04-08T08:00:21.013Z,101872.06
2023-04-08T08:03:10.605Z,101867.25
2023-04-08T08:05:59.932Z,101856.63
2023-04-08T08:08:49.089Z,101877.63
2023-04-08T08:11:41.461Z,101881.84
2023-04-08T08:14:30.657Z,101880.69
2023-04-08T08:17:21.311Z,101881.59
2023-04-08T08:20:11.653Z,101883.94
2023-04-08T08:23:01.029Z,101886.19
2023-04-08T08:25:50.312Z,101882.56
2023-04-08T08:28:40.434Z,101873.81
2023-04-08T08:31:30.677Z,101889.38
2023-04-08T08:34:31.587Z,101889.28
2023-04-08T08:37:22.065Z,101883.16
2023-04-08T08:40:12.873Z,101884.03
2023-04-08T08:43:02.503Z,101870.78
2023-04-08T08:45:51.821Z,101871.97
2023-04-08T08:48:41.463Z,101883.22
2023-04-08T08:51:32.980Z,101880.47
2023-04-08T08:54:22.332Z,101863.56
2023-04-08T08:57:20.019Z,101871.59
2023-04-08T09:00:11.017Z,101866.84
2023-04-08T09:03:17.925Z,101872.13
2023-04-08T09:06:07.418Z,101880.22
2023-04-08T09:08:58.093Z,101870.38
2023-04-08T09:11:48.743Z,101877.34
2023-04-08T09:14:38.387Z,101867.59
2023-04-08T09:17:35.357Z,101869.59
2023-04-08T09:20:25.812Z,101856.84
2023-04-08T09:23:14.991Z,101865.31
2023-04-08T09:26:10.554Z,101863.09
2023-04-08T09:29:11.090Z,101869.91
2023-04-08T09:32:08.122Z,101873.41
2023-04-08T09:34:57.473Z,101870.06
2023-04-08T09:37:46.794Z,101855.06
2023-04-08T09:40:37.772Z,101858.22
2023-04-08T09:43:28.561Z,101866.66
2023-04-08T09:46:19.698Z,101845.75
2023-04-08T09:49:13.929Z,101867.34
2023-04-08T09:52:09.769Z,101868.63
2023-04-08T09:55:04.159Z,101873.41
2023-04-08T09:57:59.011Z,101869.78
2023-04-08T10:00:53.524Z,101856.09
2023-04-08T10:03:51.489Z,101852.47
2023-04-08T10:06:42.844Z,101875.53
2023-04-08T10:09:32.970Z,101867.72
2023-04-08T10:12:22.451Z,101865.28
2023-04-08T10:15:29.430Z,101850.75
2023-04-08T10:18:35.528Z,101863.53
2023-04-08T10:21:36.225Z,101863.03
2023-04-08T10:24:26.079Z,101866.81
2023-04-08T10:27:42.192Z,101867.91
2023-04-08T10:30:44.941Z,101859.53
2023-04-08T10:33:37.823Z,101851.00
2023-04-08T10:36:29.436Z,101856.88
2023-04-08T10:39:19.283Z,101857.31
2023-04-08T10:42:10.708Z,101854.34
2023-04-08T10:45:03.494Z,101855.16
2023-04-08T10:47:52.846Z,101851.75
2023-04-08T10:50:43.591Z,101840.28
2023-04-08T10:53:35.830Z,101841.66
2023-04-08T10:56:26.029Z,101854.00
2023-04-08T10:59:17.798Z,101843.84
2023-04-08T11:02:07.241Z,101840.28
2023-04-08T11:04:56.463Z,101845.28
2023-04-08T11:07:47.066Z,101843.81
2023-04-08T11:10:39.898Z,101837.63
2023-04-08T11:13:29.171Z,101832.78
2023-04-08T11:16:18.814Z,101838.13
2023-04-08T11:19:09.035Z,101827.78
2023-04-08T11:21:58.333Z,101844.63
2023-04-08T11:24:49.240Z,101828.41
2023-04-08T11:27:39.688Z,101827.44
2023-04-08T11:30:29.949Z,101844.63
2023-04-08T11:33:19.155Z,101834.50
2023-04-08T11:36:09.730Z,101855.41
2023-04-08T11:38:59.056Z,101829.13
2023-04-08T11:41:50.178Z,101822.81
2023-04-08T11:44:39.520Z,101836.69
2023-04-08T11:47:33.594Z,101828.94
2023-04-08T11:50:30.075Z,101824.34
2023-04-08T11:53:21.010Z,101831.25
2023-04-08T11:56:21.418Z,101825.78
2023-04-08T11:59:12.107Z,101829.56
2023-04-08T12:02:02.251Z,101813.94
2023-04-08T12:04:52.472Z,101824.41
2023-04-08T12:07:41.905Z,101826.03
2023-04-08T12:10:31.645Z,101810.31
2023-04-08T12:13:21.043Z,101825.16
2023-04-08T12:16:12.569Z,101825.09
2023-04-08T12:19:02.065Z,101828.19
2023-04-08T12:21:51.355Z,101826.56
2023-04-08T12:24:40.482Z,101834.03
2023-04-08T12:27:29.691Z,101831.81
2023-04-08T12:30:19.328Z,101839.09
2023-04-08T12:33:09.934Z,101837.03
2023-04-08T12:35:59.616Z,101815.47
2023-04-08T12:38:49.416Z,101827.53
2023-04-08T12:41:38.818Z,101842.03
2023-04-08T12:44:28.395Z,101832.78
2023-04-08T12:47:18.454Z,101829.63
2023-04-08T12:50:10.747Z,101819.19
2023-04-08T12:53:00.119Z,101832.41
2023-04-08T12:55:50.194Z,101827.56
2023-04-08T12:58:39.607Z,101799.06
2023-04-08T13:01:28.970Z,101816.44
2023-04-08T13:04:19.938Z,101823.44
2023-04-08T13:07:10.557Z,101812.50
2023-04-08T13:09:59.748Z,101813.50
2023-04-08T13:12:49.051Z,101804.41
2023-04-08T13:15:38.544Z,101823.34
2023-04-08T13:18:27.814Z,101817.28
2023-04-08T13:21:17.136Z,101800.34
2023-04-08T13:24:08.238Z,101809.31
2023-04-08T13:26:57.687Z,101812.97
2023-04-08T13:29:46.960Z,101807.81
2023-04-08T13:32:36.660Z,101816.25
2023-04-08T13:35:26.968Z,101811.81
2023-04-08T13:38:16.285Z,101814.22
2023-04-08T13:41:07.504Z,101816.75
2023-04-08T13:43:56.890Z,101813.34
2023-04-08T13:46:46.234Z,101812.81
2023-04-08T13:49:35.478Z,101817.91
2023-04-08T13:52:24.690Z,101814.97
2023-04-08T13:55:13.953Z,101815.34
2023-04-08T13:58:11.295Z,101804.72
2023-04-08T14:01:07.065Z,101810.38
2023-04-08T14:03:56.482Z,101805.69
2023-04-08T14:06:45.757Z,101735.50
2023-04-08T14:09:35.899Z,101817.47
2023-04-08T14:12:25.096Z,101808.97
2023-04-08T14:15:15.773Z,101813.50
2023-04-08T14:18:05.093Z,101809.56
2023-04-08T14:20:54.329Z,101812.53
2023-04-08T14:23:43.503Z,101808.13
2023-04-08T14:26:35.874Z,101806.94
2023-04-08T14:29:26.621Z,101797.72
2023-04-08T14:32:18.278Z,101802.47
2023-04-08T14:35:08.886Z,101805.31
2023-04-08T14:37:58.274Z,101806.88
2023-04-08T14:40:47.530Z,101798.63
2023-04-08T14:43:36.818Z,101799.81
2023-04-08T14:46:29.165Z,101808.81
2023-04-08T14:49:20.079Z,101800.72
2023-04-08T14:52:09.334Z,101796.34
2023-04-08T14:54:58.547Z,101804.50
2023-04-08T14:57:47.917Z,101801.44
2023-04-08T15:00:37.842Z,101784.25
2023-04-08T15:03:27.626Z,101802.75
2023-04-08T15:06:21.927Z,101810.25
2023-04-08T15:09:11.338Z,101783.44
2023-04-08T15:12:01.411Z,101792.38
2023-04-08T15:14:51.016Z,101793.69
2023-04-08T15:17:40.288Z,101789.47
2023-04-08T15:20:29.600Z,101792.06
2023-04-08T15:23:20.218Z,101798.25
2023-04-08T15:26:10.005Z,101792.59
2023-04-08T15:28:59.920Z,101791.31
2023-04-08T15:31:49.145Z,101802.69
2023-04-08T15:34:38.372Z,101790.19
2023-04-08T15:37:27.882Z,101798.16
2023-04-08T15:40:19.103Z,101793.09
2023-04-08T15:43:10.246Z,101801.84
2023-04-08T15:45:59.498Z,101786.44
2023-04-08T15:48:48.822Z,101783.69
2023-04-08T15:51:38.273Z,101784.03
2023-04-08T15:54:29.456Z,101781.44
2023-04-08T15:57:26.542Z,101781.09
2023-04-08T16:00:16.840Z,101781.09
2023-04-08T16:03:08.964Z,101781.09
2023-04-08T16:05:58.536Z,101785.16
2023-04-08T16:08:48.745Z,101779.94
2023-04-08T16:11:38.521Z,101774.63
2023-04-08T16:14:29.288Z,101771.34
2023-04-08T16:17:18.657Z,101778.81
2023-04-08T16:20:09.181Z,101775.22
2023-04-08T16:22:58.397Z,101772.44
2023-04-08T16:25:47.858Z,101768.16
2023-04-08T16:28:39.592Z,101758.41
2023-04-08T16:34:20.324Z,101766.06
2023-04-08T16:37:09.624Z,101756.31
2023-04-08T16:39:59.066Z,101767.88
2023-04-08T16:42:48.458Z,101771.63
2023-04-08T16:45:39.217Z,101763.38
2023-04-08T16:48:29.871Z,101755.06
2023-04-08T16:51:19.142Z,101758.00
2023-04-08T16:54:08.616Z,101753.28
2023-04-08T16:56:58.304Z,101754.91
2023-04-08T16:59:47.658Z,101755.75
2023-04-08T17:02:37.199Z,101745.84
2023-04-08T17:05:28.473Z,101752.34
2023-04-08T17:08:18.857Z,101766.13
2023-04-08T17:11:10.458Z,101760.16
2023-04-08T17:14:00.531Z,101753.81
2023-04-08T17:16:57.111Z,101757.41
2023-04-08T17:19:52.054Z,101757.72
2023-04-08T17:22:43.828Z,101749.91
2023-04-08T17:25:33.084Z,101745.22
2023-04-08T17:28:24.718Z,101742.09
2023-04-08T17:31:13.931Z,101753.78
2023-04-08T17:34:06.060Z,101744.19
2023-04-08T17:36:55.518Z,101753.59
2023-04-08T17:39:48.946Z,101744.69
2023-04-08T17:42:40.493Z,101738.97
2023-04-08T17:45:29.660Z,101740.94
2023-04-08T17:48:21.205Z,101719.97
2023-04-08T17:51:10.424Z,101735.56
2023-04-08T17:53:59.729Z,101735.41
2023-04-08T17:56:50.574Z,101733.44
2023-04-08T17:59:39.763Z,101729.53
2023-04-08T18:02:29.221Z,101731.94
2023-04-08T18:05:18.606Z,101732.28
2023-04-08T18:08:07.943Z,101725.94
2023-04-08T18:10:57.154Z,101727.72
2023-04-08T18:13:49.404Z,101718.59
2023-04-08T18:16:38.808Z,101736.72
2023-04-08T18:19:28.103Z,101737.03
2023-04-08T18:22:17.657Z,101737.97
2023-04-08T18:25:07.771Z,101721.59
2023-04-08T18:27:56.968Z,101735.38
2023-04-08T18:30:51.601Z,101736.00
2023-04-08T18:33:40.863Z,101737.91
2023-04-08T18:36:30.053Z,101735.88
2023-04-08T18:39:19.273Z,101733.41
2023-04-08T18:42:08.498Z,101673.91
2023-04-08T18:44:58.016Z,101737.50
2023-04-08T18:47:48.644Z,101743.06
2023-04-08T18:50:37.833Z,101739.13
2023-04-08T18:53:27.158Z,101736.50
2023-04-08T18:56:17.556Z,101739.56
2023-04-08T18:59:07.412Z,101720.56
2023-04-08T19:01:57.320Z,101728.66
2023-04-08T19:04:48.063Z,101736.56
2023-04-08T19:07:37.303Z,101726.50
2023-04-08T19:10:26.553Z,101741.78
2023-04-08T19:13:15.902Z,101734.59
2023-04-08T19:16:05.443Z,101726.03
2023-04-08T19:18:54.972Z,101731.84
2023-04-08T19:21:45.581Z,101741.66
2023-04-08T19:24:34.859Z,101740.50
2023-04-08T19:27:24.056Z,101730.63
2023-04-08T19:30:13.922Z,101735.13
2023-04-08T19:33:03.126Z,101738.59
2023-04-08T19:35:52.416Z,101740.22
2023-04-08T19:38:43.003Z,101740.66
2023-04-08T19:41:32.274Z,101742.91
2023-04-08T19:44:21.515Z,101747.75
2023-04-08T19:47:11.028Z,101756.31
2023-04-08T19:50:00.444Z,101747.59
2023-04-08T19:52:49.753Z,101748.97
2023-04-08T19:55:40.435Z,101741.38
2023-04-08T19:58:30.996Z,101760.50
2023-04-08T20:01:20.329Z,101760.59
2023-04-08T20:04:09.634Z,101761.81
2023-04-08T20:07:01.296Z,101759.69
2023-04-08T20:09:50.548Z,101766.00
2023-04-08T20:12:42.022Z,101771.00
2023-04-08T20:15:31.225Z,101758.47
2023-04-08T20:18:20.400Z,101751.03
2023-04-08T20:21:13.923Z,101763.66
2023-04-08T20:24:03.297Z,101757.44
2023-04-08T20:26:53.543Z,101745.13
2023-04-08T20:29:44.162Z,101749.81
2023-04-08T20:32:33.449Z,101749.59
2023-04-08T20:35:22.993Z,101731.19
2023-04-08T20:38:12.262Z,101757.03
2023-04-08T20:41:01.540Z,101770.56
2023-04-08T20:43:53.614Z,101761.19
2023-04-08T20:46:46.352Z,101765.06
2023-04-08T20:49:40.025Z,101762.63
2023-04-08T20:52:29.461Z,101769.53
2023-04-08T20:55:18.868Z,101774.50
2023-04-08T20:58:08.151Z,101768.31
2023-04-08T21:00:59.797Z,101771.97
2023-04-08T21:03:50.897Z,101776.13
2023-04-08T21:06:40.764Z,101775.41
2023-04-08T21:09:29.934Z,101773.78
2023-04-08T21:12:19.168Z,101768.28
2023-04-08T21:15:09.835Z,101766.06
2023-04-08T21:17:59.185Z,101747.22
2023-04-08T21:20:50.161Z,101739.78
2023-04-08T21:23:39.586Z,101739.78
2023-04-08T21:26:28.818Z,101746.31
2023-04-08T21:29:18.035Z,101739.72
2023-04-08T21:32:07.659Z,101735.34
2023-04-08T21:34:58.699Z,101728.63
2023-04-08T21:37:49.413Z,101717.41
2023-04-08T21:40:38.592Z,101718.09
2023-04-08T21:43:28.634Z,101698.72
2023-04-08T21:46:17.971Z,101692.81
2023-04-08T21:49:07.197Z,101701.97
2023-04-08T21:51:59.484Z,101701.97
2023-04-08T21:54:53.570Z,101710.72
2023-04-08T21:57:49.260Z,101705.41
2023-04-08T22:00:39.009Z,101700.44
2023-04-08T22:03:29.680Z,101696.69
2023-04-08T22:06:28.975Z,101682.22
2023-04-08T22:09:26.204Z,101669.81
2023-04-08T22:12:18.668Z,101677.53
2023-04-08T22:15:10.107Z,101679.97
2023-04-08T22:18:01.934Z,101681.06
2023-04-08T22:20:51.452Z,101682.63
2023-04-08T22:23:40.983Z,101669.22
2023-04-08T22:26:33.376Z,101662.13
2023-04-08T22:29:24.622Z,101661.88
2023-04-08T22:32:15.717Z,101666.97
2023-04-08T22:35:05.875Z,101672.66
2023-04-08T22:37:57.268Z,101685.28
2023-04-08T22:40:46.660Z,101676.94
2023-04-08T22:43:36.610Z,101672.88
2023-04-08T22:46:27.594Z,101673.28
2023-04-08T22:49:17.014Z,101676.53
2023-04-08T22:52:06.306Z,101664.16
2023-04-08T22:54:55.631Z,101656.81
2023-04-08T22:57:46.557Z,101648.38
2023-04-08T23:00:38.054Z,101641.25
2023-04-08T23:03:38.094Z,101648.16
2023-04-08T23:06:28.956Z,101634.63
2023-04-08T23:09:18.236Z,101632.41
2023-04-08T23:12:07.702Z,101612.69
2023-04-08T23:14:59.370Z,101614.63
2023-04-08T23:17:48.632Z,101598.81
2023-04-08T23:20:39.448Z,101598.00
2023-04-08T23:23:28.789Z,101584.28
2023-04-08T23:26:21.371Z,101582.25
2023-04-08T23:29:10.821Z,101594.75
2023-04-08T23:32:00.143Z,101592.91
2023-04-08T23:34:49.418Z,101577.25
2023-04-08T23:37:39.985Z,101594.44
2023-04-08T23:40:29.269Z,101603.56
2023-04-08T23:43:18.441Z,101603.34
2023-04-08T23:46:09.504Z,101606.28
2023-04-08T23:48:58.764Z,101596.22
2023-04-08T23:51:47.941Z,101597.31
2023-04-08T23:54:38.470Z,101591.91
2023-04-08T23:57:27.684Z,101561.31
